createdAt,value
2023-03-03T00:01:54.766Z,19.00
2023-03-03T00:04:23.822Z,15.17
2023-03-03T00:07:06.249Z,15.33
2023-03-03T00:09:38.472Z,18.63
2023-03-03T00:12:23.386Z,16.20
2023-03-03T00:14:52.425Z,22.17
2023-03-03T00:17:25.722Z,17.93
2023-03-03T00:19:55.756Z,16.30
2023-03-03T00:22:31.605Z,19.13
2023-03-03T00:25:23.532Z,19.10
2023-03-03T00:27:56.773Z,20.87
2023-03-03T00:30:26.953Z,20.50
2023-03-03T00:32:57.945Z,18.30
2023-03-03T00:35:30.698Z,18.83
2023-03-03T00:38:01.694Z,20.17
2023-03-03T00:40:37.989Z,23.03
2023-03-03T00:43:19.115Z,20.03
2023-03-03T00:45:51.306Z,20.57
2023-03-03T00:48:25.972Z,22.90
2023-03-03T00:50:55.235Z,21.67
2023-03-03T00:53:28.159Z,23.77
2023-03-03T00:55:58.636Z,23.57
2023-03-03T00:58:27.482Z,24.73
2023-03-03T01:00:58.852Z,25.23
2023-03-03T01:03:28.044Z,28.20
2023-03-03T01:05:57.372Z,26.07
2023-03-03T01:08:25.846Z,25.47
2023-03-03T01:10:57.197Z,25.80
2023-03-03T01:13:30.916Z,23.40
2023-03-03T01:16:02.104Z,25.73
2023-03-03T01:18:33.056Z,27.50
2023-03-03T01:21:06.430Z,24.67
2023-03-03T01:23:36.127Z,29.40
2023-03-03T01:26:05.460Z,30.13
2023-03-03T01:28:37.212Z,30.00
2023-03-03T01:31:09.731Z,29.93
2023-03-03T01:33:42.749Z,27.93
2023-03-03T01:36:10.748Z,27.87
2023-03-03T01:38:43.480Z,29.80
2023-03-03T01:41:12.659Z,29.67
2023-03-03T01:43:46.860Z,31.70
2023-03-03T01:46:46.544Z,30.87
2023-03-03T01:49:16.979Z,28.27
2023-03-03T01:51:50.170Z,29.23
2023-03-03T01:54:23.142Z,29.73
2023-03-03T01:56:52.679Z,30.20
2023-03-03T01:59:27.945Z,30.57
2023-03-03T02:01:55.973Z,31.43
2023-03-03T02:04:24.075Z,32.43
2023-03-03T02:06:58.074Z,30.00
2023-03-03T02:09:33.591Z,32.80
2023-03-03T02:12:04.528Z,33.90
2023-03-03T02:14:33.757Z,33.17
2023-03-03T02:17:01.675Z,35.33
2023-03-03T02:19:40.202Z,35.00
2023-03-03T02:22:09.164Z,34.23
2023-03-03T02:24:44.136Z,34.23
2023-03-03T02:27:14.083Z,30.97
2023-03-03T02:29:41.964Z,33.63
2023-03-03T02:32:09.906Z,32.10
2023-03-03T02:34:50.923Z,38.80
2023-03-03T02:37:20.940Z,37.53
2023-03-03T02:39:48.879Z,34.50
2023-03-03T02:42:21.987Z,35.53
2023-03-03T02:44:51.255Z,37.03
2023-03-03T02:47:19.116Z,39.33
2023-03-03T02:49:47.008Z,33.53
2023-03-03T02:52:18.057Z,40.00
2023-03-03T02:54:46.222Z,33.60
2023-03-03T02:57:14.138Z,34.50
2023-03-03T02:59:43.642Z,36.40
2023-03-03T03:02:12.032Z,37.77
2023-03-03T03:04:40.138Z,36.73
2023-03-03T03:07:08.212Z,38.70
2023-03-03T03:09:36.005Z,39.10
2023-03-03T03:12:03.885Z,38.07
2023-03-03T03:14:31.895Z,41.07
2023-03-03T03:17:01.463Z,41.00
2023-03-03T03:19:30.120Z,39.93
2023-03-03T03:21:58.297Z,41.70
2023-03-03T03:24:26.710Z,39.47
2023-03-03T03:26:56.949Z,40.87
2023-03-03T03:29:25.279Z,42.80
2023-03-03T03:31:53.262Z,42.03
2023-03-03T03:34:25.635Z,42.23
2023-03-03T03:36:53.464Z,41.20
2023-03-03T03:39:21.259Z,46.27
2023-03-03T03:41:49.114Z,41.73
2023-03-03T03:44:16.997Z,42.07
2023-03-03T03:46:45.367Z,43.17
2023-03-03T03:49:13.531Z,39.30
2023-03-03T03:51:43.257Z,41.83
2023-03-03T03:54:12.089Z,42.97
2023-03-03T03:56:39.974Z,44.03
2023-03-03T03:59:08.939Z,46.93
2023-03-03T04:01:36.886Z,45.90
2023-03-03T04:04:05.237Z,46.93
2023-03-03T04:06:33.519Z,45.23
2023-03-03T04:09:02.766Z,48.30
2023-03-03T04:11:30.648Z,48.00
2023-03-03T04:13:58.492Z,47.37
2023-03-03T04:16:26.490Z,50.00
2023-03-03T04:18:57.337Z,45.27
2023-03-03T04:21:25.440Z,47.23
2023-03-03T04:23:55.437Z,46.67
2023-03-03T04:26:25.985Z,48.10
2023-03-03T04:28:53.844Z,46.33
2023-03-03T04:31:22.061Z,50.60
2023-03-03T04:33:49.959Z,48.87
2023-03-03T04:36:17.901Z,46.70
2023-03-03T04:38:45.773Z,50.77
2023-03-03T04:41:14.316Z,51.47
2023-03-03T04:43:45.253Z,48.63
2023-03-03T04:46:13.103Z,53.50
2023-03-03T04:48:43.915Z,53.33
2023-03-03T04:51:11.790Z,49.67
2023-03-03T04:53:39.602Z,50.33
2023-03-03T04:56:07.846Z,54.13
2023-03-03T04:58:36.872Z,51.60
2023-03-03T05:01:07.612Z,53.50
2023-03-03T05:03:35.627Z,52.83
2023-03-03T05:06:04.844Z,53.37
2023-03-03T05:08:34.035Z,56.90
2023-03-03T05:11:02.348Z,53.40
2023-03-03T05:13:31.670Z,57.27
2023-03-03T05:15:59.488Z,53.73
2023-03-03T05:18:31.766Z,48.10
2023-03-03T05:20:59.667Z,53.03
2023-03-03T05:23:28.062Z,56.63
2023-03-03T05:25:56.356Z,58.53
2023-03-03T05:28:24.576Z,61.30
2023-03-03T05:30:52.551Z,57.73
2023-03-03T05:33:20.432Z,62.57
2023-03-03T05:35:55.315Z,65.03
2023-03-03T05:38:23.350Z,63.33
2023-03-03T05:40:51.628Z,63.80
2023-03-03T05:43:19.836Z,63.30
2023-03-03T05:45:47.733Z,64.07
2023-03-03T05:48:15.777Z,61.70
2023-03-03T05:50:44.314Z,64.60
2023-03-03T05:53:21.064Z,62.43
2023-03-03T05:55:49.401Z,62.27
2023-03-03T05:58:17.243Z,65.80
2023-03-03T06:00:45.183Z,62.77
2023-03-03T06:03:13.207Z,65.40
2023-03-03T06:05:43.035Z,61.17
2023-03-03T06:08:11.697Z,57.90
2023-03-03T06:10:41.141Z,50.97
2023-03-03T06:13:09.031Z,56.83
2023-03-03T06:15:38.084Z,57.37
2023-03-03T06:18:06.214Z,60.60
2023-03-03T06:20:35.359Z,61.80
2023-03-03T06:23:03.826Z,54.87
2023-03-03T06:25:31.873Z,55.37
2023-03-03T06:28:01.043Z,56.40
2023-03-03T06:30:30.720Z,60.87
2023-03-03T06:33:09.480Z,56.73
2023-03-03T06:35:38.197Z,51.93
2023-03-03T06:38:06.412Z,54.13
2023-03-03T06:40:34.568Z,57.50
2023-03-03T06:43:06.666Z,56.47
2023-03-03T06:45:34.504Z,52.93
2023-03-03T06:48:02.368Z,48.83
2023-03-03T06:50:30.227Z,56.33
2023-03-03T06:53:06.844Z,50.30
2023-03-03T06:55:34.716Z,48.70
2023-03-03T06:58:10.798Z,52.17
2023-03-03T07:00:38.633Z,50.13
2023-03-03T07:03:13.529Z,46.47
2023-03-03T07:05:41.442Z,40.43
2023-03-03T07:08:15.399Z,50.40
2023-03-03T07:10:44.162Z,47.27
2023-03-03T07:13:26.790Z,48.17
2023-03-03T07:15:59.583Z,47.00
2023-03-03T07:18:38.372Z,40.57
2023-03-03T07:21:20.327Z,46.97
2023-03-03T07:23:50.213Z,46.23
2023-03-03T07:26:20.799Z,47.50
2023-03-03T07:28:55.157Z,46.57
2023-03-03T07:31:34.990Z,50.77
2023-03-03T07:34:08.037Z,47.77
2023-03-03T07:36:38.415Z,46.33
2023-03-03T07:39:24.122Z,45.50
2023-03-03T07:41:52.553Z,44.53
2023-03-03T07:44:30.983Z,50.80
2023-03-03T07:47:00.730Z,46.10
2023-03-03T07:49:36.608Z,47.00
2023-03-03T07:52:24.631Z,44.97
2023-03-03T07:54:53.504Z,47.07
2023-03-03T07:57:25.877Z,44.53
2023-03-03T08:00:01.113Z,43.13
2023-03-03T08:02:39.757Z,48.67
2023-03-03T08:05:28.939Z,42.67
2023-03-03T08:08:16.830Z,45.63
2023-03-03T08:10:49.462Z,43.80
2023-03-03T08:13:20.808Z,45.23
2023-03-03T08:15:52.234Z,44.17
2023-03-03T08:18:25.931Z,41.50
2023-03-03T08:20:56.225Z,47.33
2023-03-03T08:23:25.328Z,39.50
2023-03-03T08:25:53.829Z,43.33
2023-03-03T08:28:25.920Z,44.70
2023-03-03T08:31:14.217Z,38.60
2023-03-03T08:33:46.703Z,45.17
2023-03-03T08:36:16.427Z,39.97
2023-03-03T08:38:44.629Z,45.40
2023-03-03T08:41:13.065Z,39.90
2023-03-03T08:43:41.111Z,39.20
2023-03-03T08:46:12.216Z,38.13
2023-03-03T08:48:40.927Z,39.03
2023-03-03T08:51:12.253Z,36.50
2023-03-03T08:53:40.457Z,35.57
2023-03-03T08:56:10.461Z,35.73
2023-03-03T08:58:41.974Z,37.77
2023-03-03T09:01:15.434Z,39.57
2023-03-03T09:03:44.305Z,36.73
2023-03-03T09:06:12.904Z,36.27
2023-03-03T09:08:40.861Z,36.97
2023-03-03T09:11:11.819Z,36.03
2023-03-03T09:13:39.672Z,39.20
2023-03-03T09:16:17.145Z,37.57
2023-03-03T09:18:45.319Z,31.73
2023-03-03T09:21:26.697Z,34.60
2023-03-03T09:23:59.225Z,35.13
2023-03-03T09:26:41.241Z,34.17
2023-03-03T09:29:19.900Z,33.30
2023-03-03T09:32:03.590Z,37.40
2023-03-03T09:34:58.735Z,35.53
2023-03-03T09:37:37.419Z,31.67
2023-03-03T09:40:33.447Z,33.40
2023-03-03T09:43:09.850Z,35.97
2023-03-03T09:45:46.012Z,32.43
2023-03-03T09:48:27.983Z,33.70
2023-03-03T09:51:10.877Z,30.57
2023-03-03T09:53:56.035Z,30.07
2023-03-03T09:56:29.220Z,30.53
2023-03-03T09:59:10.581Z,32.13
2023-03-03T10:01:52.239Z,30.43
2023-03-03T10:04:46.593Z,27.33
2023-03-03T10:07:28.932Z,27.13
2023-03-03T10:10:20.404Z,35.30
2023-03-03T10:13:03.454Z,29.70
2023-03-03T10:15:42.234Z,27.37
2023-03-03T10:18:21.707Z,27.67
2023-03-03T10:21:03.332Z,25.40
2023-03-03T10:23:48.529Z,28.00
2023-03-03T10:26:38.225Z,22.33
2023-03-03T10:29:23.616Z,26.03
2023-03-03T10:32:10.367Z,24.63
2023-03-03T10:35:00.395Z,22.73
2023-03-03T10:37:41.104Z,23.00
2023-03-03T10:40:22.483Z,24.77
2023-03-03T10:43:26.091Z,25.77
2023-03-03T10:46:14.088Z,26.13
2023-03-03T10:49:00.368Z,21.07
2023-03-03T10:51:34.934Z,21.50
2023-03-03T10:54:23.555Z,20.97
2023-03-03T10:57:02.187Z,22.70
2023-03-03T10:59:42.546Z,20.17
2023-03-03T11:02:19.036Z,21.37
2023-03-03T11:05:24.058Z,21.33
2023-03-03T11:07:58.971Z,23.83
2023-03-03T11:10:46.194Z,21.63
2023-03-03T11:13:20.590Z,22.50
2023-03-03T11:16:01.966Z,18.37
2023-03-03T11:18:39.146Z,19.67
2023-03-03T11:21:15.528Z,21.43
2023-03-03T11:24:07.109Z,15.57
2023-03-03T11:26:46.582Z,17.77
2023-03-03T11:29:33.048Z,21.27
2023-03-03T11:32:11.002Z,19.53
2023-03-03T11:34:52.911Z,19.07
2023-03-03T11:37:25.670Z,20.50
2023-03-03T11:39:56.883Z,20.13
2023-03-03T11:42:33.802Z,25.93
2023-03-03T11:45:04.530Z,21.83
2023-03-03T11:47:40.588Z,20.83
2023-03-03T11:50:18.098Z,20.17
2023-03-03T11:52:53.234Z,21.70
2023-03-03T11:55:28.319Z,19.40
2023-03-03T11:58:08.674Z,18.40
2023-03-03T12:00:42.151Z,16.10
2023-03-03T12:03:34.894Z,20.07
2023-03-03T12:06:15.420Z,21.57
2023-03-03T12:08:58.843Z,16.83
2023-03-03T12:11:29.442Z,19.20
2023-03-03T12:14:03.825Z,15.40
2023-03-03T12:16:43.920Z,16.33
2023-03-03T12:19:23.525Z,16.83
2023-03-03T12:22:06.241Z,17.40
2023-03-03T12:24:54.249Z,17.20
2023-03-03T12:27:26.840Z,18.77
2023-03-03T12:30:07.387Z,16.97
2023-03-03T12:32:58.793Z,17.00
2023-03-03T12:35:35.124Z,19.23
2023-03-03T12:38:09.625Z,14.47
2023-03-03T12:40:44.248Z,19.07
2023-03-03T12:43:36.171Z,17.80
2023-03-03T12:46:14.334Z,18.73
2023-03-03T12:48:44.978Z,14.70
2023-03-03T12:51:22.600Z,13.77
2023-03-03T12:54:08.332Z,18.27
2023-03-03T12:56:42.462Z,15.97
2023-03-03T12:59:18.267Z,16.43
2023-03-03T13:02:01.137Z,16.83
2023-03-03T13:04:36.542Z,17.50
2023-03-03T13:07:08.493Z,20.60
2023-03-03T13:09:54.377Z,21.67
2023-03-03T13:12:33.692Z,20.00
2023-03-03T13:15:12.554Z,18.40
2023-03-03T13:17:55.413Z,28.37
2023-03-03T13:20:29.044Z,23.00
2023-03-03T13:23:07.814Z,22.00
2023-03-03T13:25:47.277Z,18.00
2023-03-03T13:28:33.381Z,15.20
2023-03-03T13:31:07.726Z,15.00
2023-03-03T13:33:38.121Z,18.23
2023-03-03T13:36:11.497Z,15.07
2023-03-03T13:38:45.055Z,13.57
2023-03-03T13:41:22.363Z,13.80
2023-03-03T13:43:55.868Z,15.17
2023-03-03T13:46:35.018Z,16.27
2023-03-03T13:49:29.360Z,13.57
2023-03-03T13:52:04.116Z,13.90
2023-03-03T13:54:51.956Z,12.17
2023-03-03T13:57:40.691Z,15.73
2023-03-03T14:00:22.510Z,12.37
2023-03-03T14:03:05.116Z,13.93
2023-03-03T14:05:39.377Z,14.30
2023-03-03T14:08:18.849Z,14.83
2023-03-03T14:10:54.991Z,15.30
2023-03-03T14:13:31.456Z,14.17
2023-03-03T14:16:06.587Z,13.63
2023-03-03T14:18:40.353Z,15.27
2023-03-03T14:21:16.224Z,12.70
2023-03-03T14:23:53.745Z,12.47
2023-03-03T14:26:22.001Z,13.67
2023-03-03T14:28:54.624Z,12.33
2023-03-03T14:31:26.453Z,13.57
2023-03-03T14:34:00.485Z,14.30
2023-03-03T14:36:32.815Z,10.93
2023-03-03T14:39:02.454Z,13.10
2023-03-03T14:41:41.373Z,12.77
2023-03-03T14:44:27.283Z,11.63
2023-03-03T14:47:21.938Z,11.60
2023-03-03T14:49:51.854Z,13.30
2023-03-03T14:52:28.301Z,12.47
2023-03-03T14:55:00.551Z,13.17
2023-03-03T14:57:46.935Z,13.53
2023-03-03T15:00:36.589Z,13.53
2023-03-03T15:03:21.969Z,11.97
2023-03-03T15:05:52.614Z,14.30
2023-03-03T15:08:32.343Z,13.33
2023-03-03T15:11:15.027Z,11.10
2023-03-03T15:13:42.991Z,12.97
2023-03-03T15:16:17.785Z,11.83
2023-03-03T15:19:05.198Z,11.97
2023-03-03T15:21:35.789Z,12.10
2023-03-03T15:24:11.353Z,11.20
2023-03-03T15:26:47.679Z,9.80
2023-03-03T15:29:22.271Z,10.30
2023-03-03T15:31:58.850Z,14.10
2023-03-03T15:34:38.046Z,9.47
2023-03-03T15:37:16.698Z,13.17
2023-03-03T15:39:55.037Z,9.10
2023-03-03T15:42:28.777Z,11.57
2023-03-03T15:45:11.906Z,7.33
2023-03-03T15:47:55.495Z,7.97
2023-03-03T15:50:37.790Z,8.33
2023-03-03T15:53:19.671Z,9.47
2023-03-03T15:56:09.579Z,10.30
2023-03-03T15:59:09.101Z,7.63
2023-03-03T16:01:45.329Z,8.33
2023-03-03T16:04:16.288Z,9.03
2023-03-03T16:06:52.278Z,8.50
2023-03-03T16:09:40.923Z,8.07
2023-03-03T16:12:27.039Z,9.20
2023-03-03T16:15:09.141Z,8.00
2023-03-03T16:17:45.425Z,8.43
2023-03-03T16:20:21.872Z,9.40
2023-03-03T16:23:08.673Z,7.73
2023-03-03T16:25:55.839Z,7.30
2023-03-03T16:28:31.996Z,8.73
2023-03-03T16:31:11.172Z,7.73
2023-03-03T16:33:45.284Z,7.17
2023-03-03T16:36:38.440Z,6.97
2023-03-03T16:39:15.169Z,8.57
2023-03-03T16:41:48.487Z,9.63
2023-03-03T16:44:35.478Z,9.60
2023-03-03T16:47:23.400Z,6.90
2023-03-03T16:50:13.308Z,8.57
2023-03-03T16:52:49.146Z,10.33
2023-03-03T16:55:21.616Z,12.60
2023-03-03T16:58:03.755Z,10.70
2023-03-03T17:00:42.591Z,9.43
2023-03-03T17:03:38.556Z,9.33
2023-03-03T17:06:16.485Z,7.50
2023-03-03T17:09:20.419Z,8.27
2023-03-03T17:12:12.934Z,7.20
2023-03-03T17:14:58.479Z,8.57
2023-03-03T17:17:38.844Z,8.57
2023-03-03T17:20:31.233Z,8.27
2023-03-03T17:23:15.560Z,6.80
2023-03-03T17:25:48.988Z,8.20
2023-03-03T17:28:36.507Z,8.07
2023-03-03T17:31:14.564Z,10.83
2023-03-03T17:33:57.399Z,12.17
2023-03-03T17:36:37.430Z,7.93
2023-03-03T17:39:20.302Z,12.87
2023-03-03T17:41:59.328Z,10.47
2023-03-03T17:44:36.829Z,9.63
2023-03-03T17:47:08.276Z,11.77
2023-03-03T17:50:10.469Z,9.93
2023-03-03T17:53:01.350Z,12.63
2023-03-03T17:55:50.522Z,10.40
2023-03-03T17:59:10.120Z,9.47
2023-03-03T18:01:55.154Z,10.40
2023-03-03T18:04:58.389Z,10.77
2023-03-03T18:07:49.508Z,13.43
2023-03-03T18:10:45.094Z,10.03
2023-03-03T18:13:37.350Z,11.77
2023-03-03T18:16:19.396Z,12.40
2023-03-03T18:19:00.964Z,11.70
2023-03-03T18:21:35.271Z,13.73
2023-03-03T18:24:29.200Z,14.20
2023-03-03T18:26:57.527Z,15.17
2023-03-03T18:29:29.184Z,13.03
2023-03-03T18:32:21.462Z,12.13
2023-03-03T18:34:52.557Z,17.00
2023-03-03T18:37:45.563Z,13.13
2023-03-03T18:40:29.348Z,13.03
2023-03-03T18:43:02.558Z,10.80
2023-03-03T18:45:49.807Z,15.80
2023-03-03T18:48:41.720Z,12.53
2023-03-03T18:51:10.007Z,14.13
2023-03-03T18:53:38.427Z,13.93
2023-03-03T18:56:12.331Z,16.03
2023-03-03T18:58:42.368Z,13.33
2023-03-03T19:01:41.906Z,11.37
2023-03-03T19:04:26.282Z,12.83
2023-03-03T19:07:15.502Z,12.83
2023-03-03T19:09:58.264Z,11.83
2023-03-03T19:12:51.612Z,14.10
2023-03-03T19:15:47.342Z,14.17
2023-03-03T19:18:22.231Z,16.90
2023-03-03T19:20:56.119Z,16.60
2023-03-03T19:23:42.778Z,11.40
2023-03-03T19:26:33.149Z,12.57
2023-03-03T19:29:18.155Z,9.93
2023-03-03T19:31:53.733Z,11.60
2023-03-03T19:34:28.315Z,11.67
2023-03-03T19:37:06.428Z,13.00
2023-03-03T19:40:01.836Z,11.83
2023-03-03T19:42:40.121Z,11.23
2023-03-03T19:45:23.987Z,11.80
2023-03-03T19:48:00.477Z,13.30
2023-03-03T19:50:45.819Z,12.70
2023-03-03T19:53:29.441Z,11.40
2023-03-03T19:56:19.020Z,11.40
2023-03-03T19:58:57.804Z,11.07
2023-03-03T20:01:38.075Z,14.20
2023-03-03T20:04:40.347Z,12.53
2023-03-03T20:07:22.986Z,14.17
2023-03-03T20:09:59.709Z,12.40
2023-03-03T20:12:39.309Z,11.13
2023-03-03T20:15:15.198Z,13.27
2023-03-03T20:18:01.420Z,11.30
2023-03-03T20:21:06.599Z,11.47
2023-03-03T20:23:46.218Z,14.17
2023-03-03T20:26:23.451Z,14.83
2023-03-03T20:29:04.065Z,14.60
2023-03-03T20:31:40.496Z,11.87
2023-03-03T20:34:21.191Z,13.97
2023-03-03T20:37:01.468Z,10.80
2023-03-03T20:39:54.269Z,11.43
2023-03-03T20:42:35.029Z,12.07
2023-03-03T20:45:19.957Z,14.30
2023-03-03T20:47:58.324Z,11.80
2023-03-03T20:50:37.450Z,13.17
2023-03-03T20:53:15.247Z,15.83
2023-03-03T20:55:58.485Z,14.13
2023-03-03T20:58:36.036Z,12.60
2023-03-03T21:01:08.189Z,12.73
2023-03-03T21:03:39.355Z,12.37
2023-03-03T21:06:16.256Z,12.83
2023-03-03T21:08:48.325Z,13.23
2023-03-03T21:11:18.464Z,14.70
2023-03-03T21:13:49.274Z,13.33
2023-03-03T21:16:31.372Z,13.80
2023-03-03T21:19:00.609Z,15.17
2023-03-03T21:21:32.264Z,13.30
2023-03-03T21:24:02.061Z,15.83
2023-03-03T21:26:47.620Z,14.83
2023-03-03T21:29:22.350Z,13.27
2023-03-03T21:31:53.032Z,14.50
2023-03-03T21:34:24.206Z,13.87
2023-03-03T21:36:56.892Z,15.33
2023-03-03T21:39:28.013Z,14.83
2023-03-03T21:41:59.182Z,16.93
2023-03-03T21:44:41.406Z,15.83
2023-03-03T21:47:12.304Z,15.63
2023-03-03T21:49:42.167Z,17.03
2023-03-03T21:52:12.226Z,16.47
2023-03-03T21:54:40.422Z,18.70
2023-03-03T21:57:09.853Z,16.83
2023-03-03T21:59:37.883Z,15.47
2023-03-03T22:02:06.396Z,16.50
2023-03-03T22:04:34.820Z,15.43
2023-03-03T22:07:02.959Z,20.47
2023-03-03T22:09:32.198Z,16.67
2023-03-03T22:12:01.470Z,15.80
2023-03-03T22:14:29.644Z,16.53
2023-03-03T22:16:58.790Z,16.20
2023-03-03T22:19:26.912Z,19.50
2023-03-03T22:21:55.838Z,15.07
2023-03-03T22:24:28.130Z,15.93
2023-03-03T22:26:57.951Z,18.40
2023-03-03T22:29:26.385Z,14.77
2023-03-03T22:31:55.696Z,15.17
2023-03-03T22:34:23.762Z,15.83
2023-03-03T22:36:51.933Z,17.73
2023-03-03T22:39:20.177Z,20.10
2023-03-03T22:41:48.650Z,18.50
2023-03-03T22:44:17.886Z,19.10
2023-03-03T22:46:45.777Z,18.53
2023-03-03T22:49:17.980Z,16.67
2023-03-03T22:51:46.089Z,22.70
2023-03-03T22:54:13.970Z,18.10
2023-03-03T22:56:41.816Z,18.93
2023-03-03T22:59:09.784Z,22.17
2023-03-03T23:01:39.050Z,18.57
2023-03-03T23:04:06.859Z,21.07
2023-03-03T23:06:34.752Z,21.10
2023-03-03T23:09:02.693Z,19.30
2023-03-03T23:11:30.809Z,19.87
2023-03-03T23:14:01.264Z,17.90
2023-03-03T23:16:29.451Z,18.80
2023-03-03T23:18:58.885Z,19.37
2023-03-03T23:21:26.804Z,19.37
2023-03-03T23:23:54.660Z,18.67
2023-03-03T23:26:22.699Z,19.20
2023-03-03T23:28:50.652Z,20.47
2023-03-03T23:31:18.698Z,21.10
2023-03-03T23:33:46.614Z,22.77
2023-03-03T23:36:15.855Z,19.83
2023-03-03T23:38:44.032Z,22.10
2023-03-03T23:41:12.533Z,21.67
2023-03-03T23:43:40.780Z,19.53
2023-03-03T23:46:09.001Z,22.67
2023-03-03T23:48:37.174Z,20.93
2023-03-03T23:51:05.395Z,22.00
2023-03-03T23:53:34.717Z,21.87
2023-03-03T23:56:02.637Z,21.13
2023-03-03T23:58:30.889Z,19.77
